createdAt,value
2019-02-26T00:01:23.431Z,82.81
2019-02-26T00:03:49.932Z,82.68
2019-02-26T00:06:18.388Z,82.75
2019-02-26T00:08:47.254Z,82.60
2019-02-26T00:11:13.741Z,82.79
2019-02-26T00:13:40.273Z,82.87
2019-02-26T00:16:07.953Z,82.96
2019-02-26T00:18:35.696Z,82.95
2019-02-26T00:21:03.303Z,83.05
2019-02-26T00:23:30.984Z,83.23
2019-02-26T00:25:57.709Z,83.60
2019-02-26T00:28:24.354Z,83.87
2019-02-26T00:30:51.213Z,83.75
2019-02-26T00:33:19.569Z,84.23
2019-02-26T00:35:48.063Z,83.97
2019-02-26T00:38:16.041Z,84.11
2019-02-26T00:40:43.841Z,84.48
2019-02-26T00:43:10.629Z,84.47
2019-02-26T00:45:39.064Z,84.28
2019-02-26T00:48:05.906Z,84.17
2019-02-26T00:50:34.836Z,84.18
2019-02-26T00:53:01.755Z,83.85
2019-02-26T00:55:32.175Z,83.84
2019-02-26T00:58:00.988Z,83.76
2019-02-26T01:00:28.518Z,83.78
2019-02-26T01:02:56.473Z,83.89
2019-02-26T01:05:23.224Z,84.19
2019-02-26T01:07:52.096Z,84.26
2019-02-26T01:10:19.332Z,85.01
2019-02-26T01:12:46.968Z,85.79
2019-02-26T01:15:14.120Z,85.92
2019-02-26T01:17:42.241Z,86.22
2019-02-26T01:20:11.274Z,86.23
2019-02-26T01:22:40.145Z,86.25
2019-02-26T01:25:06.861Z,86.10
2019-02-26T01:27:33.580Z,85.96
2019-02-26T01:30:00.415Z,85.86
2019-02-26T01:32:28.748Z,86.17
2019-02-26T01:34:55.594Z,86.24
2019-02-26T01:37:22.166Z,85.99
2019-02-26T01:39:50.166Z,86.12
2019-02-26T01:42:21.614Z,85.90
2019-02-26T01:44:46.114Z,85.79
2019-02-26T01:47:12.690Z,85.79
2019-02-26T01:49:39.759Z,85.80
2019-02-26T01:52:08.326Z,85.65
2019-02-26T01:54:37.358Z,85.81
2019-02-26T01:57:08.604Z,86.11
2019-02-26T01:59:34.500Z,86.08
2019-02-26T02:02:01.433Z,86.05
2019-02-26T02:04:28.104Z,86.26
2019-02-26T02:06:56.658Z,86.40
2019-02-26T02:09:25.082Z,86.39
2019-02-26T02:11:59.923Z,86.66
2019-02-26T02:14:26.388Z,86.66
2019-02-26T02:16:53.175Z,86.53
2019-02-26T02:19:22.271Z,86.53
2019-02-26T02:21:49.420Z,86.31
2019-02-26T02:24:18.092Z,86.27
2019-02-26T02:26:49.843Z,86.21
2019-02-26T02:29:16.553Z,86.31
2019-02-26T02:31:43.048Z,86.42
2019-02-26T02:34:09.734Z,86.50
2019-02-26T02:36:36.593Z,86.40
2019-02-26T02:39:10.462Z,86.42
2019-02-26T02:41:33.316Z,86.49
2019-02-26T02:43:59.886Z,86.50
2019-02-26T02:46:26.560Z,86.45
2019-02-26T02:48:53.263Z,86.41
2019-02-26T02:51:20.057Z,86.61
2019-02-26T02:53:47.824Z,86.70
2019-02-26T02:56:17.832Z,86.55
2019-02-26T02:58:46.186Z,86.49
2019-02-26T03:01:13.836Z,86.43
2019-02-26T03:03:41.261Z,86.30
2019-02-26T03:06:09.709Z,86.19
2019-02-26T03:08:36.553Z,86.26
2019-02-26T03:11:03.392Z,86.25
2019-02-26T03:13:30.092Z,86.28
2019-02-26T03:15:59.253Z,86.42
2019-02-26T03:18:25.511Z,86.59
2019-02-26T03:20:53.812Z,86.68
2019-02-26T03:23:20.965Z,86.80
2019-02-26T03:25:49.800Z,86.96
2019-02-26T03:28:16.503Z,86.92
2019-02-26T03:30:44.550Z,86.84
2019-02-26T03:33:11.405Z,86.97
2019-02-26T03:35:38.159Z,86.98
2019-02-26T03:38:04.831Z,87.09
2019-02-26T03:40:33.003Z,87.11
2019-02-26T03:43:01.476Z,86.99
2019-02-26T03:45:29.127Z,87.14
2019-02-26T03:47:58.066Z,87.09
2019-02-26T03:50:27.061Z,87.10
2019-02-26T03:52:52.886Z,86.96
2019-02-26T03:55:19.681Z,87.01
2019-02-26T03:57:47.418Z,86.96
2019-02-26T04:00:17.395Z,87.02
2019-02-26T04:02:47.737Z,86.96
2019-02-26T04:05:12.479Z,87.03
2019-02-26T04:07:39.237Z,87.12
2019-02-26T04:10:06.394Z,87.31
2019-02-26T04:12:36.323Z,87.20
2019-02-26T04:15:02.055Z,87.11
2019-02-26T04:17:30.787Z,87.15
2019-02-26T04:19:57.576Z,87.23
2019-02-26T04:22:31.768Z,87.26
2019-02-26T04:25:10.952Z,87.31
2019-02-26T04:27:56.360Z,87.54
2019-02-26T04:31:14.368Z,87.67
2019-02-26T04:34:30.297Z,87.60
2019-02-26T04:37:32.756Z,87.60
2019-02-26T04:40:19.363Z,87.75
2019-02-26T04:43:39.918Z,87.80
2019-02-26T04:46:31.650Z,87.84
2019-02-26T04:48:58.969Z,87.92
2019-02-26T04:51:25.999Z,87.96
2019-02-26T04:53:54.188Z,87.79
2019-02-26T04:56:21.275Z,87.71
2019-02-26T04:58:48.033Z,87.68
2019-02-26T05:01:16.401Z,87.77
2019-02-26T05:03:43.414Z,87.71
2019-02-26T05:06:10.802Z,87.58
2019-02-26T05:08:40.123Z,87.38
2019-02-26T05:11:06.750Z,87.51
2019-02-26T05:13:34.595Z,87.63
2019-02-26T05:16:01.630Z,87.65
2019-02-26T05:18:31.522Z,87.69
2019-02-26T05:20:59.187Z,87.75
2019-02-26T05:23:26.395Z,87.67
2019-02-26T05:25:59.728Z,87.60
2019-02-26T05:28:25.383Z,87.64
2019-02-26T05:30:52.105Z,87.83
2019-02-26T05:33:21.443Z,87.76
2019-02-26T05:35:49.002Z,87.87
2019-02-26T05:38:16.263Z,87.83
2019-02-26T05:40:45.104Z,87.82
2019-02-26T05:43:11.814Z,87.76
2019-02-26T05:45:38.635Z,87.88
2019-02-26T05:48:05.213Z,87.85
2019-02-26T05:50:34.731Z,87.81
2019-02-26T05:53:01.689Z,87.90
2019-02-26T05:55:29.252Z,87.87
2019-02-26T05:57:56.002Z,87.85
2019-02-26T06:00:28.349Z,87.87
2019-02-26T06:02:52.472Z,87.85
2019-02-26T06:05:20.544Z,87.89
2019-02-26T06:07:47.557Z,87.86
2019-02-26T06:10:14.209Z,87.93
2019-02-26T06:12:43.626Z,87.90
2019-02-26T06:15:09.423Z,87.90
2019-02-26T06:17:40.581Z,87.89
2019-02-26T06:20:16.668Z,87.87
2019-02-26T06:22:43.310Z,87.88
2019-02-26T06:25:14.950Z,87.87
2019-02-26T06:27:38.500Z,87.95
2019-02-26T06:30:09.265Z,87.79
2019-02-26T06:32:37.106Z,87.69
2019-02-26T06:35:06.683Z,87.85
2019-02-26T06:37:35.443Z,87.96
2019-02-26T06:40:03.291Z,87.72
2019-02-26T06:42:32.985Z,87.48
2019-02-26T06:44:59.298Z,87.31
2019-02-26T06:47:28.390Z,87.08
2019-02-26T06:49:54.951Z,86.78
2019-02-26T06:52:21.618Z,86.39
2019-02-26T06:54:54.812Z,86.09
2019-02-26T06:57:17.041Z,85.81
2019-02-26T06:59:43.680Z,85.51
2019-02-26T07:02:10.941Z,85.01
2019-02-26T07:04:38.342Z,84.58
2019-02-26T07:07:06.792Z,84.05
2019-02-26T07:09:34.593Z,83.44
2019-02-26T07:12:02.076Z,82.53
2019-02-26T07:14:30.258Z,81.73
2019-02-26T07:16:59.105Z,81.64
2019-02-26T07:19:26.133Z,81.15
2019-02-26T07:21:54.155Z,81.07
2019-02-26T07:24:22.922Z,80.42
2019-02-26T07:26:49.366Z,80.07
2019-02-26T07:29:17.509Z,79.33
2019-02-26T07:31:44.244Z,79.37
2019-02-26T07:34:10.818Z,79.00
2019-02-26T07:36:37.484Z,77.83
2019-02-26T07:39:06.571Z,77.88
2019-02-26T07:41:33.313Z,78.32
2019-02-26T07:44:00.104Z,77.18
2019-02-26T07:46:27.016Z,77.24
2019-02-26T07:48:56.483Z,76.78
2019-02-26T07:51:22.293Z,76.85
2019-02-26T07:53:51.232Z,76.79
2019-02-26T07:56:17.624Z,76.36
2019-02-26T07:58:44.169Z,75.37
2019-02-26T08:01:10.849Z,74.80
2019-02-26T08:03:37.539Z,74.14
2019-02-26T08:06:06.675Z,74.09
2019-02-26T08:08:32.869Z,73.59
2019-02-26T08:10:59.445Z,73.11
2019-02-26T08:13:28.889Z,73.37
2019-02-26T08:15:55.112Z,72.91
2019-02-26T08:18:23.192Z,72.40
2019-02-26T08:20:49.921Z,72.70
2019-02-26T08:23:17.188Z,71.63
2019-02-26T08:25:45.299Z,71.03
2019-02-26T08:28:13.489Z,71.17
2019-02-26T08:30:44.254Z,69.86
2019-02-26T08:33:09.014Z,69.10
2019-02-26T08:35:35.732Z,69.49
2019-02-26T08:38:05.650Z,66.69
2019-02-26T08:40:30.950Z,66.34
2019-02-26T08:42:57.698Z,65.44
2019-02-26T08:45:25.823Z,64.80
2019-02-26T08:47:52.616Z,62.45
2019-02-26T08:50:19.248Z,60.95
2019-02-26T08:52:47.739Z,60.69
2019-02-26T08:55:16.162Z,60.27
2019-02-26T08:57:43.094Z,59.48
2019-02-26T09:00:14.900Z,59.09
2019-02-26T09:02:43.552Z,58.63
2019-02-26T09:05:11.954Z,58.83
2019-02-26T09:07:40.415Z,57.46
2019-02-26T09:10:09.833Z,55.49
2019-02-26T09:12:36.398Z,54.93
2019-02-26T09:15:04.304Z,52.83
2019-02-26T09:17:32.504Z,50.80
2019-02-26T09:20:06.968Z,50.80
2019-02-26T09:22:28.453Z,49.79
2019-02-26T09:24:56.845Z,48.64
2019-02-26T09:27:24.819Z,46.85
2019-02-26T09:29:52.420Z,43.43
2019-02-26T09:32:19.213Z,39.16
2019-02-26T09:34:45.762Z,35.73
2019-02-26T09:37:12.475Z,33.12
2019-02-26T09:39:39.206Z,31.92
2019-02-26T09:42:06.482Z,28.77
2019-02-26T09:44:35.907Z,26.49
2019-02-26T09:47:04.966Z,27.00
2019-02-26T09:49:33.265Z,27.17
2019-02-26T09:52:01.447Z,28.80
2019-02-26T09:54:28.212Z,30.95
2019-02-26T09:56:54.858Z,31.18
2019-02-26T09:59:21.398Z,30.73
2019-02-26T10:01:47.972Z,32.16
2019-02-26T10:04:14.522Z,32.86
2019-02-26T10:06:42.569Z,30.31
2019-02-26T10:09:12.787Z,29.92
2019-02-26T10:11:39.411Z,28.78
2019-02-26T10:14:07.945Z,26.90
2019-02-26T10:16:35.362Z,26.95
2019-02-26T10:19:02.100Z,27.42
2019-02-26T10:21:28.911Z,27.04
2019-02-26T10:23:56.807Z,25.78
2019-02-26T10:26:26.130Z,26.22
2019-02-26T10:28:57.794Z,24.68
2019-02-26T10:31:25.042Z,24.00
2019-02-26T10:33:50.844Z,23.30
2019-02-26T10:36:18.401Z,23.45
2019-02-26T10:38:45.244Z,24.13
2019-02-26T10:41:12.043Z,25.62
2019-02-26T10:43:40.032Z,25.77
2019-02-26T10:46:06.768Z,25.75
2019-02-26T10:48:33.512Z,24.33
2019-02-26T10:51:00.600Z,23.58
2019-02-26T10:53:27.606Z,23.30
2019-02-26T10:55:54.554Z,22.39
2019-02-26T10:58:21.368Z,20.25
2019-02-26T11:00:53.177Z,20.72
2019-02-26T11:03:20.293Z,20.33
2019-02-26T11:05:48.785Z,20.23
2019-02-26T11:08:15.702Z,20.82
2019-02-26T11:10:44.495Z,20.09
2019-02-26T11:13:13.025Z,19.84
2019-02-26T11:15:39.610Z,19.26
2019-02-26T11:18:08.086Z,19.17
2019-02-26T11:20:35.007Z,18.81
2019-02-26T11:23:03.532Z,19.10
2019-02-26T11:25:30.262Z,17.61
2019-02-26T11:27:56.913Z,17.96
2019-02-26T11:30:28.593Z,17.90
2019-02-26T11:32:56.133Z,18.34
2019-02-26T11:35:22.590Z,18.57
2019-02-26T11:37:52.220Z,18.18
2019-02-26T11:40:20.296Z,18.66
2019-02-26T11:42:49.352Z,17.86
2019-02-26T11:45:19.116Z,19.03
2019-02-26T11:47:45.017Z,17.80
2019-02-26T11:50:13.067Z,17.37
2019-02-26T11:52:39.899Z,17.62
2019-02-26T11:55:09.432Z,17.95
2019-02-26T11:57:37.686Z,18.66
2019-02-26T12:00:09.224Z,18.87
2019-02-26T12:02:37.053Z,18.79
2019-02-26T12:05:05.600Z,19.58
2019-02-26T12:07:34.857Z,19.47
2019-02-26T12:10:08.734Z,19.40
2019-02-26T12:12:31.129Z,18.94
2019-02-26T12:15:01.067Z,18.67
2019-02-26T12:17:27.656Z,19.67
2019-02-26T12:19:55.768Z,20.24
2019-02-26T12:22:25.212Z,21.43
2019-02-26T12:24:55.782Z,22.68
2019-02-26T12:27:20.798Z,24.12
2019-02-26T12:29:51.613Z,25.34
2019-02-26T12:32:19.449Z,26.61
2019-02-26T12:34:48.436Z,25.43
2019-02-26T12:37:14.074Z,25.31
2019-02-26T12:39:43.499Z,27.28
2019-02-26T12:42:10.646Z,27.48
2019-02-26T12:44:39.569Z,27.95
2019-02-26T12:47:06.274Z,26.93
2019-02-26T12:49:35.613Z,27.26
2019-02-26T12:52:03.274Z,26.17
2019-02-26T12:54:33.209Z,24.69
2019-02-26T12:57:00.652Z,25.88
2019-02-26T12:59:27.326Z,26.27
2019-02-26T13:01:54.232Z,26.55
2019-02-26T13:04:24.855Z,26.91
2019-02-26T13:06:51.981Z,26.62
2019-02-26T13:09:18.096Z,25.97
2019-02-26T13:12:00.651Z,26.55
2019-02-26T13:14:13.615Z,26.11
2019-02-26T13:16:42.031Z,27.04
2019-02-26T13:19:08.882Z,26.69
2019-02-26T13:21:35.592Z,27.00
2019-02-26T13:24:11.470Z,26.05
2019-02-26T13:26:36.100Z,27.12
2019-02-26T13:29:00.491Z,26.26
2019-02-26T13:31:27.438Z,26.47
2019-02-26T13:33:54.109Z,26.90
2019-02-26T13:36:20.783Z,26.49
2019-02-26T13:38:49.174Z,26.43
2019-02-26T13:41:38.332Z,26.80
2019-02-26T13:43:44.566Z,26.41
2019-02-26T13:46:11.500Z,27.44
2019-02-26T13:48:38.145Z,27.01
2019-02-26T13:51:04.941Z,27.04
2019-02-26T13:53:31.473Z,26.46
2019-02-26T13:55:58.184Z,26.70
2019-02-26T13:58:24.812Z,26.43
2019-02-26T14:00:51.605Z,26.00
2019-02-26T14:03:19.425Z,27.18
2019-02-26T14:05:45.982Z,29.24
2019-02-26T14:08:13.159Z,27.67
2019-02-26T14:10:39.814Z,27.02
2019-02-26T14:13:06.496Z,27.33
2019-02-26T14:15:33.561Z,26.84
2019-02-26T14:18:00.413Z,27.58
2019-02-26T14:20:27.272Z,27.30
2019-02-26T14:22:55.596Z,28.84
2019-02-26T14:25:22.147Z,28.00
2019-02-26T14:27:48.898Z,28.38
2019-02-26T14:30:15.784Z,27.56
2019-02-26T14:32:42.539Z,28.31
2019-02-26T14:35:09.866Z,28.59
2019-02-26T14:37:36.711Z,27.93
2019-02-26T14:40:04.284Z,28.65
2019-02-26T14:42:31.456Z,25.63
2019-02-26T14:44:58.188Z,27.89
2019-02-26T14:47:24.742Z,27.30
2019-02-26T14:49:51.404Z,28.06
2019-02-26T14:52:18.073Z,26.64
2019-02-26T14:54:44.751Z,26.76
2019-02-26T14:57:11.729Z,28.34
2019-02-26T14:59:38.387Z,28.93
2019-02-26T15:02:05.691Z,28.26
2019-02-26T15:04:32.422Z,28.98
2019-02-26T15:06:58.956Z,29.99
2019-02-26T15:09:25.560Z,28.58
2019-02-26T15:11:52.232Z,29.17
2019-02-26T15:14:19.107Z,29.38
2019-02-26T15:16:45.833Z,28.90
2019-02-26T15:19:12.627Z,27.57
2019-02-26T15:21:39.283Z,27.98
2019-02-26T15:24:06.159Z,29.06
2019-02-26T15:26:32.710Z,29.03
2019-02-26T15:28:59.496Z,29.66
2019-02-26T15:31:26.086Z,31.36
2019-02-26T15:33:52.744Z,30.88
2019-02-26T15:36:19.394Z,31.14
2019-02-26T15:38:46.336Z,30.54
2019-02-26T15:41:13.176Z,30.52
2019-02-26T15:43:40.889Z,29.79
2019-02-26T15:46:07.600Z,30.38
2019-02-26T15:48:36.329Z,31.13
2019-02-26T15:51:03.960Z,32.00
2019-02-26T15:53:30.716Z,32.05
2019-02-26T15:55:59.481Z,33.56
2019-02-26T15:58:25.994Z,33.54
2019-02-26T16:00:52.635Z,33.67
2019-02-26T16:03:20.351Z,34.23
2019-02-26T16:05:47.204Z,34.70
2019-02-26T16:08:13.851Z,35.61
2019-02-26T16:10:40.546Z,35.21
2019-02-26T16:13:07.319Z,36.41
2019-02-26T16:15:34.201Z,37.55
2019-02-26T16:18:00.886Z,37.37
2019-02-26T16:20:27.925Z,37.31
2019-02-26T16:22:54.626Z,39.06
2019-02-26T16:25:21.285Z,38.62
2019-02-26T16:27:47.865Z,39.21
2019-02-26T16:30:18.717Z,39.23
2019-02-26T16:32:45.351Z,38.71
2019-02-26T16:35:12.129Z,39.25
2019-02-26T16:37:41.506Z,40.22
2019-02-26T16:40:07.859Z,40.96
2019-02-26T16:42:34.508Z,41.12
2019-02-26T16:45:01.693Z,40.54
2019-02-26T16:47:28.580Z,41.75
2019-02-26T16:49:55.287Z,41.59
2019-02-26T16:52:22.122Z,42.08
2019-02-26T16:54:48.733Z,42.16
2019-02-26T16:57:15.563Z,42.47
2019-02-26T16:59:42.377Z,43.55
2019-02-26T17:02:09.148Z,43.80
2019-02-26T17:04:35.754Z,43.26
2019-02-26T17:07:02.731Z,43.09
2019-02-26T17:09:29.463Z,42.89
2019-02-26T17:11:56.138Z,44.17
2019-02-26T17:14:22.840Z,42.98
2019-02-26T17:16:49.429Z,43.66
2019-02-26T17:19:16.135Z,44.25
2019-02-26T17:21:42.899Z,42.72
2019-02-26T17:24:09.694Z,43.54
2019-02-26T17:26:36.386Z,44.05
2019-02-26T17:29:03.283Z,43.23
2019-02-26T17:31:30.750Z,44.52
2019-02-26T17:33:57.920Z,44.65
2019-02-26T17:36:24.675Z,44.61
2019-02-26T17:38:52.169Z,45.09
2019-02-26T17:41:18.953Z,45.20
2019-02-26T17:43:45.489Z,44.71
2019-02-26T17:46:12.189Z,45.00
2019-02-26T17:48:43.476Z,44.98
2019-02-26T17:51:08.162Z,46.25
2019-02-26T17:53:34.795Z,46.50
2019-02-26T17:56:01.408Z,46.39
2019-02-26T17:58:28.299Z,47.12
2019-02-26T18:00:55.744Z,47.51
2019-02-26T18:03:22.598Z,46.98
2019-02-26T18:05:51.472Z,48.77
2019-02-26T18:08:19.103Z,48.55
2019-02-26T18:10:46.329Z,48.04
2019-02-26T18:13:13.112Z,47.94
2019-02-26T18:15:39.817Z,48.96
2019-02-26T18:18:06.569Z,49.06
2019-02-26T18:20:33.317Z,48.62
2019-02-26T18:23:00.784Z,48.70
2019-02-26T18:25:27.510Z,49.19
2019-02-26T18:27:54.182Z,49.84
2019-02-26T18:30:21.250Z,49.60
2019-02-26T18:32:50.527Z,49.95
2019-02-26T18:35:16.759Z,50.20
2019-02-26T18:37:46.299Z,50.62
2019-02-26T18:40:12.119Z,51.25
2019-02-26T18:42:41.359Z,52.16
2019-02-26T18:45:10.941Z,50.76
2019-02-26T18:47:37.629Z,51.74
2019-02-26T18:50:04.635Z,51.56
2019-02-26T18:52:31.412Z,50.98
2019-02-26T18:54:58.341Z,51.01
2019-02-26T18:57:25.135Z,50.72
2019-02-26T18:59:53.692Z,52.02
2019-02-26T19:02:20.504Z,52.31
2019-02-26T19:04:49.261Z,52.59
2019-02-26T19:07:15.970Z,52.78
2019-02-26T19:09:45.100Z,53.21
2019-02-26T19:12:11.496Z,52.99
2019-02-26T19:14:41.887Z,51.63
2019-02-26T19:17:06.912Z,52.00
2019-02-26T19:19:33.756Z,52.40
2019-02-26T19:22:00.489Z,52.06
2019-02-26T19:24:27.439Z,52.06
2019-02-26T19:26:54.193Z,52.28
2019-02-26T19:29:20.898Z,53.32
2019-02-26T19:31:50.178Z,54.00
2019-02-26T19:34:17.051Z,53.46
2019-02-26T19:36:45.896Z,52.98
2019-02-26T19:39:12.689Z,53.11
2019-02-26T19:41:39.410Z,53.64
2019-02-26T19:44:06.183Z,55.37
2019-02-26T19:46:32.948Z,54.80
2019-02-26T19:48:59.693Z,53.62
2019-02-26T19:51:26.376Z,53.79
2019-02-26T19:53:53.155Z,53.84
2019-02-26T19:56:23.195Z,53.15
2019-02-26T20:01:10.685Z,52.66
2019-02-26T20:03:40.169Z,52.22
2019-02-26T20:06:05.806Z,52.79
2019-02-26T20:08:32.489Z,52.30
2019-02-26T20:10:59.187Z,52.35
2019-02-26T20:13:26.010Z,52.18
2019-02-26T20:15:54.826Z,52.70
2019-02-26T20:18:25.783Z,52.74
2019-02-26T20:20:49.742Z,53.18
2019-02-26T20:23:16.655Z,53.70
2019-02-26T20:25:44.115Z,53.67
2019-02-26T20:28:11.873Z,53.95
2019-02-26T20:30:38.704Z,53.86
2019-02-26T20:33:05.343Z,53.59
2019-02-26T20:35:32.000Z,54.41
2019-02-26T20:37:59.359Z,52.76
2019-02-26T20:40:26.080Z,52.47
2019-02-26T20:42:52.985Z,52.57
2019-02-26T20:45:22.469Z,52.55
2019-02-26T20:47:49.168Z,52.57
2019-02-26T20:50:20.123Z,52.24
2019-02-26T20:52:44.837Z,53.22
2019-02-26T20:55:13.643Z,52.65
2019-02-26T20:57:41.747Z,52.54
2019-02-26T21:00:12.377Z,51.47
2019-02-26T21:02:40.276Z,51.29
2019-02-26T21:05:07.194Z,51.69
2019-02-26T21:07:33.966Z,51.93
2019-02-26T21:10:03.875Z,51.91
2019-02-26T21:12:29.628Z,52.94
2019-02-26T21:14:58.645Z,52.28
2019-02-26T21:17:26.244Z,52.38
2019-02-26T21:19:53.035Z,52.44
2019-02-26T21:22:22.101Z,52.30
2019-02-26T21:24:49.053Z,52.42
2019-02-26T21:27:15.876Z,53.27
2019-02-26T21:29:42.643Z,53.04
2019-02-26T21:32:09.572Z,53.36
2019-02-26T21:34:36.488Z,53.22
2019-02-26T21:37:03.392Z,54.11
2019-02-26T21:39:30.340Z,54.57
2019-02-26T21:41:57.164Z,55.65
2019-02-26T21:44:24.895Z,55.12
2019-02-26T21:46:55.812Z,55.94
2019-02-26T21:49:21.797Z,55.86
2019-02-26T21:51:48.539Z,55.58
2019-02-26T21:54:15.336Z,55.74
2019-02-26T21:56:42.061Z,56.08
2019-02-26T21:59:09.865Z,56.03
2019-02-26T22:01:36.642Z,56.29
2019-02-26T22:04:05.326Z,57.20
2019-02-26T22:06:32.058Z,57.39
2019-02-26T22:08:58.919Z,57.80
2019-02-26T22:11:25.717Z,58.00
2019-02-26T22:13:52.461Z,58.10
2019-02-26T22:16:19.209Z,58.28
2019-02-26T22:18:46.990Z,57.97
2019-02-26T22:21:13.770Z,58.29
2019-02-26T22:23:41.625Z,58.13
2019-02-26T22:26:08.351Z,58.59
2019-02-26T22:28:35.220Z,58.50
2019-02-26T22:31:01.928Z,58.22
2019-02-26T22:33:48.202Z,58.13
2019-02-26T22:36:15.022Z,57.97
2019-02-26T22:38:41.718Z,57.08
2019-02-26T22:41:08.450Z,56.21
2019-02-26T22:43:35.312Z,56.29
2019-02-26T22:46:02.186Z,56.63
2019-02-26T22:48:28.884Z,56.68
2019-02-26T22:50:59.564Z,56.52
2019-02-26T22:53:24.193Z,56.56
2019-02-26T22:55:50.893Z,56.52
2019-02-26T22:58:17.656Z,57.26
2019-02-26T23:01:11.755Z,56.89
2019-02-26T23:03:39.086Z,56.84
2019-02-26T23:06:07.197Z,56.55
2019-02-26T23:08:33.939Z,55.86
2019-02-26T23:11:00.601Z,55.76
2019-02-26T23:13:31.545Z,55.94
2019-02-26T23:15:56.533Z,56.36
2019-02-26T23:18:23.360Z,56.19
2019-02-26T23:20:50.027Z,56.92
2019-02-26T23:23:16.714Z,54.97
2019-02-26T23:25:43.406Z,53.75
2019-02-26T23:28:10.098Z,54.91
2019-02-26T23:30:36.796Z,54.59
2019-02-26T23:33:05.755Z,54.57
2019-02-26T23:35:32.358Z,54.88
2019-02-26T23:37:58.995Z,55.52
2019-02-26T23:40:27.416Z,54.77
2019-02-26T23:42:54.255Z,54.78
2019-02-26T23:45:23.941Z,54.68
2019-02-26T23:47:49.335Z,54.40
2019-02-26T23:50:16.555Z,54.08
2019-02-26T23:52:43.279Z,54.11
2019-02-26T23:55:13.093Z,54.43
2019-02-26T23:57:38.608Z,54.35
